Yorkville, Illinois
Current Conditions -  °F | °C
As of 4:52 PM on Tuesday 25 Nov 2014 (Local Time) from KARR Reporting Station
Scattered Clouds Scattered Clouds  
Wind Chill: 12°   Ceiling: Unl
Heat Index: 20°   Visibility: 7mi
Dew Point: 14°   Wind: 6mph
Humidity: 78%   Direction: 260°W
Pressure: 30.16"   Gusts: NA
Location:  41.64°N, 88.45°W
Report Text: KARR 252252Z 26005KT 7SM SCT015 M07/M10 A3016 RMK AO2 SLP223 T10671100
Loading
Personal Weather Stations






























Interactive Weather Map New forecast layout! Learn more

10-Day Weather Forecast

Advertisements
Track Severe Weather on mobile